createdAt,value
2018-12-03T00:01:29.080Z,30.65
2018-12-03T00:04:09.247Z,28.75
2018-12-03T00:06:42.087Z,34.18
2018-12-03T00:09:15.105Z,30.70
2018-12-03T00:11:47.826Z,32.45
2018-12-03T00:14:20.413Z,31.25
2018-12-03T00:16:53.173Z,27.90
2018-12-03T00:19:25.883Z,29.90
2018-12-03T00:21:58.514Z,26.65
2018-12-03T00:24:31.261Z,27.85
2018-12-03T00:27:03.906Z,24.40
2018-12-03T00:29:36.619Z,25.27
2018-12-03T00:32:09.247Z,28.17
2018-12-03T00:34:41.846Z,27.85
2018-12-03T00:37:14.479Z,27.60
2018-12-03T00:39:47.082Z,27.20
2018-12-03T00:42:19.721Z,25.52
2018-12-03T00:44:52.480Z,25.92
2018-12-03T00:47:25.130Z,26.82
2018-12-03T00:49:57.758Z,25.80
2018-12-03T00:52:30.422Z,24.75
2018-12-03T00:55:03.124Z,27.50
2018-12-03T00:57:36.304Z,30.68
2018-12-03T01:00:09.472Z,29.27
2018-12-03T01:02:42.224Z,28.77
2018-12-03T01:05:14.857Z,32.50
2018-12-03T01:07:47.470Z,30.08
2018-12-03T01:10:20.197Z,31.50
2018-12-03T01:12:52.848Z,32.53
2018-12-03T01:15:25.638Z,32.53
2018-12-03T01:17:58.224Z,31.87
2018-12-03T01:20:30.921Z,32.17
2018-12-03T01:23:03.534Z,32.70
2018-12-03T01:25:36.250Z,35.23
2018-12-03T01:28:08.784Z,37.00
2018-12-03T01:30:42.479Z,35.30
2018-12-03T01:33:15.201Z,38.17
2018-12-03T01:35:47.885Z,35.38
2018-12-03T01:38:20.461Z,36.73
2018-12-03T01:40:53.251Z,34.20
2018-12-03T01:43:25.922Z,36.13
2018-12-03T01:45:58.481Z,29.35
2018-12-03T01:48:31.039Z,30.27
2018-12-03T01:51:04.387Z,33.73
2018-12-03T01:53:37.001Z,32.75
2018-12-03T01:56:09.622Z,33.20
2018-12-03T01:58:42.249Z,31.75
2018-12-03T02:01:14.919Z,36.60
2018-12-03T02:03:47.583Z,31.25
2018-12-03T02:06:20.220Z,29.63
2018-12-03T02:08:52.909Z,31.07
2018-12-03T02:11:25.529Z,32.08
2018-12-03T02:13:58.118Z,29.57
2018-12-03T02:16:30.734Z,26.95
2018-12-03T02:19:03.439Z,27.93
2018-12-03T02:21:36.110Z,23.87
2018-12-03T02:24:08.704Z,21.85
2018-12-03T02:26:41.344Z,22.15
2018-12-03T02:29:13.964Z,25.05
2018-12-03T02:31:46.553Z,23.47
2018-12-03T02:34:19.207Z,24.87
2018-12-03T02:36:51.855Z,23.90
2018-12-03T02:39:24.487Z,19.00
2018-12-03T02:41:57.091Z,21.85
2018-12-03T02:44:29.787Z,19.42
2018-12-03T02:47:02.448Z,20.92
2018-12-03T02:49:35.135Z,19.12
2018-12-03T02:52:07.716Z,19.50
2018-12-03T02:54:40.302Z,18.45
2018-12-03T02:57:12.878Z,17.12
2018-12-03T02:59:45.537Z,18.00
2018-12-03T03:02:18.143Z,17.30
2018-12-03T03:04:50.787Z,15.38
2018-12-03T03:07:23.449Z,14.35
2018-12-03T03:09:56.079Z,12.63
2018-12-03T03:12:28.682Z,14.28
2018-12-03T03:15:01.315Z,14.00
2018-12-03T03:17:34.019Z,14.85
2018-12-03T03:20:08.550Z,16.07
2018-12-03T03:22:41.258Z,16.32
2018-12-03T03:25:13.925Z,17.90
2018-12-03T03:27:46.539Z,18.67
2018-12-03T03:30:19.145Z,18.50
2018-12-03T03:32:51.791Z,17.00
2018-12-03T03:35:24.405Z,18.82
2018-12-03T03:37:57.026Z,17.50
2018-12-03T03:40:29.651Z,17.23
2018-12-03T03:43:02.326Z,16.77
2018-12-03T03:45:35.074Z,16.40
2018-12-03T03:48:07.817Z,15.87
2018-12-03T03:50:40.343Z,15.30
2018-12-03T03:53:12.933Z,14.20
2018-12-03T03:55:45.562Z,14.10
2018-12-03T03:58:18.120Z,14.90
2018-12-03T04:00:50.718Z,12.20
2018-12-03T04:03:23.364Z,12.28
2018-12-03T04:05:55.965Z,7.50
2018-12-03T04:08:28.575Z,4.87
2018-12-03T04:11:01.198Z,3.10
2018-12-03T04:13:33.802Z,4.22
2018-12-03T04:16:06.433Z,3.77
2018-12-03T04:18:39.016Z,4.60
2018-12-03T04:21:11.683Z,4.00
2018-12-03T04:23:44.302Z,4.03
2018-12-03T04:26:16.875Z,2.20
2018-12-03T04:28:49.501Z,3.52
2018-12-03T04:31:22.121Z,2.10
2018-12-03T04:33:54.687Z,1.98
2018-12-03T04:36:27.388Z,1.67
2018-12-03T04:39:00.078Z,2.40
2018-12-03T06:22:21.435Z,13.08
2018-12-03T06:24:54.073Z,12.75
2018-12-03T06:27:26.713Z,12.10
2018-12-03T06:29:59.240Z,11.83
2018-12-03T06:32:31.869Z,9.48
2018-12-03T06:35:05.774Z,10.65
2018-12-03T06:37:38.377Z,10.35
2018-12-03T06:40:16.131Z,9.55
2018-12-03T06:42:48.777Z,8.95
2018-12-03T06:45:22.340Z,8.35
2018-12-03T06:47:58.517Z,9.55
2018-12-03T06:50:31.101Z,8.73
2018-12-03T06:53:03.840Z,9.35
2018-12-03T06:55:36.486Z,8.95
2018-12-03T06:58:09.033Z,9.05
2018-12-03T08:43:49.968Z,6.80
2018-12-03T08:46:22.590Z,6.30
2018-12-03T08:48:55.204Z,6.50
2018-12-03T08:51:27.867Z,7.40
2018-12-03T09:45:32.963Z,4.45
2018-12-03T09:48:05.904Z,5.80
2018-12-03T09:50:38.454Z,5.87
2018-12-03T09:53:11.024Z,6.13
2018-12-03T09:55:43.671Z,5.65
2018-12-03T09:58:20.715Z,5.92
2018-12-03T10:00:53.241Z,5.58
2018-12-03T10:03:28.588Z,5.80
2018-12-03T10:06:07.432Z,6.33
2018-12-03T10:08:39.986Z,8.03
2018-12-03T10:11:12.581Z,6.42
2018-12-03T10:13:45.165Z,6.08
2018-12-03T10:16:17.843Z,5.72
2018-12-03T10:18:50.449Z,6.33
2018-12-03T10:21:22.990Z,6.45
2018-12-03T10:23:55.618Z,9.03
2018-12-03T10:26:28.198Z,6.87
2018-12-03T10:29:00.771Z,5.58
2018-12-03T10:31:33.438Z,7.55
2018-12-03T10:34:10.248Z,6.12
2018-12-03T10:36:52.480Z,5.87
2018-12-03T10:39:28.061Z,6.40
2018-12-03T10:42:07.019Z,5.37
2018-12-03T10:44:39.760Z,5.87
2018-12-03T10:47:12.362Z,7.05
2018-12-03T10:49:45.020Z,5.78
2018-12-03T10:52:19.276Z,6.03
2018-12-03T10:54:52.965Z,5.57
2018-12-03T10:57:25.563Z,5.90
2018-12-03T10:59:58.353Z,6.30
2018-12-03T11:02:36.842Z,5.00
2018-12-03T11:05:15.287Z,4.60
2018-12-03T11:07:48.352Z,6.23
2018-12-03T11:10:22.022Z,5.20
2018-12-03T11:12:54.761Z,6.00
2018-12-03T11:15:27.357Z,5.27
2018-12-03T11:18:01.264Z,5.33
2018-12-03T11:20:33.917Z,3.83
2018-12-03T11:23:07.304Z,4.77
2018-12-03T11:25:41.774Z,5.00
2018-12-03T11:28:15.959Z,4.63
2018-12-03T11:30:51.917Z,4.70
2018-12-03T11:33:26.525Z,5.00
2018-12-03T11:35:59.734Z,4.80
2018-12-03T11:38:36.918Z,4.30
2018-12-03T11:41:09.488Z,4.40
2018-12-03T11:43:42.090Z,4.10
2018-12-03T11:46:15.486Z,4.57
2018-12-03T11:48:48.289Z,5.27
2018-12-03T11:51:20.837Z,4.90
2018-12-03T11:53:53.530Z,5.90
2018-12-03T11:56:26.197Z,4.33
2018-12-03T11:58:58.836Z,5.93
2018-12-03T12:01:31.681Z,5.17
2018-12-03T12:04:04.546Z,5.53
2018-12-03T12:06:37.123Z,4.60
2018-12-03T12:09:11.797Z,5.83
2018-12-03T12:11:44.993Z,4.97
2018-12-03T12:14:24.366Z,4.13
2018-12-03T12:16:56.980Z,5.33
2018-12-03T12:19:29.664Z,5.20
2018-12-03T12:22:02.335Z,5.07
2018-12-03T12:24:36.313Z,5.20
2018-12-03T12:27:09.198Z,5.70
2018-12-03T12:29:41.849Z,5.40
2018-12-03T12:32:15.495Z,5.20
2018-12-03T12:34:48.083Z,4.80
2018-12-03T12:37:22.144Z,5.20
2018-12-03T12:39:55.115Z,5.50
2018-12-03T12:42:31.613Z,6.17
2018-12-03T12:45:02.793Z,6.23
2018-12-03T12:47:36.078Z,5.13
2018-12-03T12:50:13.039Z,5.70
2018-12-03T12:52:45.615Z,6.20
2018-12-03T12:55:18.749Z,5.70
2018-12-03T12:57:51.309Z,6.60
2018-12-03T13:00:23.895Z,6.17
2018-12-03T13:02:57.602Z,5.50
2018-12-03T13:05:30.149Z,6.20
2018-12-03T13:08:02.685Z,5.23
2018-12-03T13:10:35.311Z,5.63
2018-12-03T13:13:07.903Z,4.50
2018-12-03T13:15:40.455Z,5.40
2018-12-03T13:18:13.128Z,5.03
2018-12-03T13:20:46.826Z,5.00
2018-12-03T13:23:19.423Z,5.70
2018-12-03T13:25:52.208Z,5.63
2018-12-03T13:28:24.854Z,5.40
2018-12-03T13:30:57.424Z,5.47
2018-12-03T13:33:30.186Z,6.53
2018-12-03T13:36:02.977Z,6.43
2018-12-03T13:38:35.836Z,5.90
2018-12-03T13:41:08.505Z,7.37
2018-12-03T13:43:41.071Z,6.37
2018-12-03T13:46:13.631Z,5.90
2018-12-03T13:48:46.258Z,6.43
2018-12-03T13:51:19.399Z,6.30
2018-12-03T13:53:51.978Z,6.87
2018-12-03T13:56:24.623Z,7.47
2018-12-03T13:58:57.218Z,7.20
2018-12-03T14:01:29.940Z,7.20
2018-12-03T14:04:09.160Z,7.00
2018-12-03T14:06:49.687Z,7.28
2018-12-03T14:09:36.582Z,7.17
2018-12-03T14:12:44.032Z,7.50
2018-12-03T14:15:25.982Z,7.55
2018-12-03T14:18:36.437Z,7.17
2018-12-03T14:21:14.952Z,7.35
2018-12-03T14:23:49.907Z,7.55
2018-12-03T14:26:23.617Z,7.12
2018-12-03T14:28:56.287Z,6.10
2018-12-03T14:31:29.516Z,9.28
2018-12-03T14:34:02.082Z,7.50
2018-12-03T14:36:34.673Z,8.20
2018-12-03T14:39:07.948Z,7.85
2018-12-03T14:41:41.524Z,8.00
2018-12-03T14:44:15.136Z,7.20
2018-12-03T14:46:47.733Z,7.97
2018-12-03T14:49:20.319Z,7.00
2018-12-03T14:51:53.636Z,7.37
2018-12-03T14:54:26.258Z,7.12
2018-12-03T14:56:58.898Z,6.90
2018-12-03T14:59:31.470Z,7.30
2018-12-03T15:02:04.084Z,7.05
2018-12-03T15:04:36.769Z,7.60
2018-12-03T15:07:09.451Z,6.75
2018-12-03T15:09:43.126Z,7.62
2018-12-03T15:12:15.751Z,6.12
2018-12-03T15:14:48.466Z,6.35
2018-12-03T15:17:22.084Z,6.58
2018-12-03T15:19:54.782Z,6.60
2018-12-03T15:22:28.395Z,6.62
2018-12-03T15:25:00.989Z,6.22
2018-12-03T15:27:33.591Z,7.28
2018-12-03T15:30:08.196Z,7.78
2018-12-03T15:32:40.747Z,6.47
2018-12-03T15:35:14.228Z,7.95
2018-12-03T15:37:46.793Z,8.10
2018-12-03T15:40:19.503Z,7.97
2018-12-03T15:42:52.120Z,7.47
2018-12-03T15:45:24.738Z,8.33
2018-12-03T15:47:57.531Z,9.33
2018-12-03T15:50:30.892Z,9.20
2018-12-03T15:53:04.095Z,9.75
2018-12-03T15:55:36.724Z,7.87
2018-12-03T15:58:09.839Z,9.65
2018-12-03T16:00:42.523Z,7.50
2018-12-03T16:03:15.152Z,9.10
2018-12-03T16:05:47.853Z,9.80
2018-12-03T16:08:20.410Z,10.25
2018-12-03T16:10:53.122Z,10.55
2018-12-03T16:13:25.878Z,10.05
2018-12-03T16:15:58.454Z,10.50
2018-12-03T16:18:31.061Z,9.15
2018-12-03T16:21:04.542Z,8.40
2018-12-03T16:23:37.203Z,8.30
2018-12-03T16:26:09.880Z,8.15
2018-12-03T16:28:43.645Z,7.28
2018-12-03T16:31:16.966Z,7.53
2018-12-03T16:33:49.511Z,7.20
2018-12-03T16:36:22.233Z,7.80
2018-12-03T16:38:54.944Z,8.10
2018-12-03T16:41:27.562Z,7.28
2018-12-03T16:44:00.739Z,6.40
2018-12-03T16:46:33.413Z,6.72
2018-12-03T16:49:06.658Z,8.65
2018-12-03T16:51:39.363Z,7.00
2018-12-03T16:54:11.980Z,6.90
2018-12-03T16:56:44.728Z,6.53
2018-12-03T16:59:18.215Z,5.62
2018-12-03T17:01:51.649Z,7.15
2018-12-03T17:04:24.304Z,7.03
2018-12-03T17:06:57.006Z,7.20
2018-12-03T17:09:29.632Z,6.80
2018-12-03T17:12:02.444Z,6.20
2018-12-03T17:14:35.291Z,6.17
2018-12-03T17:17:07.948Z,7.25
2018-12-03T17:19:59.237Z,7.90
2018-12-03T17:23:59.151Z,7.00
2018-12-03T17:26:31.899Z,7.47
2018-12-03T17:29:04.531Z,7.25
2018-12-03T17:31:37.260Z,6.97
2018-12-03T17:34:10.198Z,8.80
2018-12-03T17:36:42.954Z,8.93
2018-12-03T17:39:17.015Z,8.73
2018-12-03T17:41:51.859Z,9.00
2018-12-03T17:44:24.429Z,10.15
2018-12-03T17:46:57.175Z,9.45
2018-12-03T17:49:29.959Z,9.58
2018-12-03T17:52:02.591Z,9.23
2018-12-03T17:54:35.191Z,9.43
2018-12-03T17:57:07.757Z,10.88
2018-12-03T17:59:41.222Z,9.90
2018-12-03T18:02:14.003Z,10.60
2018-12-03T18:04:47.727Z,9.80
2018-12-03T18:07:20.661Z,9.70
2018-12-03T18:09:53.580Z,9.40
2018-12-03T18:12:26.227Z,8.73
2018-12-03T18:14:58.796Z,8.75
2018-12-03T18:17:32.239Z,9.18
2018-12-03T18:20:06.658Z,9.70
2018-12-03T18:22:39.318Z,10.43
2018-12-03T18:25:11.856Z,10.35
2018-12-03T18:27:45.658Z,9.60
2018-12-03T18:30:18.290Z,10.20
2018-12-03T18:32:50.898Z,9.60
2018-12-03T18:35:23.518Z,9.30
2018-12-03T18:37:56.214Z,9.68
2018-12-03T18:40:28.814Z,9.55
2018-12-03T18:43:03.496Z,10.32
2018-12-03T18:45:36.182Z,10.28
2018-12-03T18:48:10.582Z,10.68
2018-12-03T18:50:46.310Z,12.33
2018-12-03T18:53:21.409Z,12.80
2018-12-03T18:55:54.231Z,12.40
2018-12-03T18:58:48.116Z,12.35
2018-12-03T19:01:20.767Z,13.13
2018-12-03T19:03:53.489Z,12.33
2018-12-03T19:06:26.359Z,13.28
2018-12-03T19:08:59.252Z,12.98
2018-12-03T19:11:31.923Z,13.75
2018-12-03T19:14:04.760Z,13.18
2018-12-03T19:16:37.391Z,13.18
2018-12-03T19:19:10.328Z,14.00
2018-12-03T19:21:42.974Z,14.23
2018-12-03T19:24:15.685Z,15.03
2018-12-03T19:26:49.103Z,15.10
2018-12-03T19:29:21.791Z,15.95
2018-12-03T19:31:56.518Z,15.58
2018-12-03T19:34:31.120Z,17.52
2018-12-03T19:37:18.589Z,16.48
2018-12-03T19:39:51.290Z,16.23
2018-12-03T19:42:24.035Z,17.30
2018-12-03T19:44:56.738Z,17.40
2018-12-03T19:47:29.396Z,15.68
2018-12-03T19:50:03.245Z,18.50
2018-12-03T19:52:36.766Z,19.45
2018-12-03T19:55:12.012Z,17.70
2018-12-03T19:57:48.197Z,17.55
2018-12-03T20:00:20.743Z,18.05
2018-12-03T20:02:53.437Z,17.85
2018-12-03T20:05:33.252Z,19.55
2018-12-03T20:08:10.986Z,18.90
2018-12-03T20:10:45.180Z,18.00
2018-12-03T20:13:18.787Z,19.17
2018-12-03T20:15:51.540Z,19.62
2018-12-03T20:18:24.588Z,20.88
2018-12-03T20:21:05.735Z,23.67
2018-12-03T20:23:48.997Z,23.30
2018-12-03T20:26:27.988Z,23.10
2018-12-03T20:30:22.434Z,21.15
2018-12-03T20:33:05.573Z,20.97
2018-12-03T20:35:59.446Z,23.18
2018-12-03T20:38:39.739Z,21.15
2018-12-03T20:41:17.970Z,20.25
2018-12-03T20:43:52.265Z,20.82
2018-12-03T20:46:38.330Z,20.62
2018-12-03T20:51:24.242Z,20.55
2018-12-03T20:53:56.922Z,19.82
2018-12-03T20:56:29.522Z,20.75
2018-12-03T20:59:03.290Z,23.15
2018-12-03T21:01:40.846Z,24.60
2018-12-03T21:04:16.348Z,22.95
2018-12-03T21:06:49.328Z,22.27
2018-12-03T21:09:22.583Z,22.20
2018-12-03T21:11:56.553Z,23.80
2018-12-03T21:14:29.222Z,24.55
2018-12-03T21:17:02.243Z,24.60
2018-12-03T21:19:36.043Z,22.80
2018-12-03T21:22:08.839Z,22.30
2018-12-03T21:24:41.511Z,23.22
2018-12-03T21:27:14.193Z,23.47
2018-12-03T21:29:46.794Z,19.85
2018-12-03T21:32:19.412Z,21.12
2018-12-03T21:34:52.062Z,22.02
2018-12-03T21:37:25.355Z,21.60
2018-12-03T21:39:58.107Z,22.45
2018-12-03T21:42:31.632Z,18.95
2018-12-03T21:45:05.212Z,20.77
2018-12-03T21:47:39.202Z,22.37
2018-12-03T21:50:11.805Z,24.20
2018-12-03T21:52:44.457Z,22.93
2018-12-03T21:55:17.080Z,22.17
2018-12-03T21:57:50.653Z,21.80
2018-12-03T22:00:25.008Z,23.25
2018-12-03T22:02:57.690Z,21.60
2018-12-03T22:05:30.798Z,20.40
2018-12-03T22:08:14.921Z,18.87
2018-12-03T22:10:57.778Z,21.35
2018-12-03T22:13:33.963Z,21.52
2018-12-03T22:16:06.935Z,20.90
2018-12-03T22:18:39.936Z,21.02
2018-12-03T22:21:15.738Z,21.48
2018-12-03T22:23:54.466Z,19.07
2018-12-03T22:26:29.615Z,19.17
2018-12-03T22:29:04.670Z,21.25
2018-12-03T22:31:39.977Z,21.12
2018-12-03T22:34:14.533Z,21.15
2018-12-03T22:38:17.396Z,11.03
2018-12-03T22:40:50.777Z,10.88
2018-12-03T22:43:24.211Z,10.03
2018-12-03T22:46:00.186Z,8.78
2018-12-03T22:48:32.932Z,8.78
2018-12-03T22:51:06.036Z,10.30
2018-12-03T22:53:43.245Z,8.45
2018-12-03T22:56:17.917Z,9.78
2018-12-03T22:58:52.606Z,12.25
2018-12-03T23:01:26.694Z,9.28
2018-12-03T23:04:02.386Z,9.05
2018-12-03T23:06:34.987Z,9.58
2018-12-03T23:09:09.086Z,11.75
2018-12-03T23:11:41.978Z,10.75
2018-12-03T23:14:19.562Z,9.55
2018-12-03T23:16:58.573Z,7.30
2018-12-03T23:21:53.843Z,7.12
2018-12-03T23:24:26.450Z,8.03
2018-12-03T23:26:59.118Z,4.10
2018-12-03T23:29:33.379Z,3.40
2018-12-03T23:32:06.205Z,3.33
2018-12-03T23:34:39.664Z,3.30
2018-12-03T23:37:12.181Z,2.58
2018-12-03T23:39:44.846Z,2.85
2018-12-03T23:42:17.450Z,3.10
2018-12-03T23:44:50.007Z,2.70
2018-12-03T23:47:22.530Z,2.42
2018-12-03T23:49:55.116Z,2.10
2018-12-03T23:52:27.771Z,2.90
2018-12-03T23:55:00.345Z,2.83
2018-12-03T23:57:32.946Z,2.90
